Time;durP1;ratioP1;P1;durP2;ratioP2;P2;SDS_P1;SDS_P2;PMS_P1;PMS_P2;Temp;Humidity;BMP_temperature;BMP_pressure;BME280_temperature;BME280_humidity;BME280_pressure;Samples;Min_cycle;Max_cycle;Signal;HPM_P1;HPM_P2
2023/08/25 00:00:09;;;;;;;15.15;3.95;;;;;;;-145.81;100.00;67990.72;2060913;28;20035;-79
2023/08/25 00:01:14;;;;;;;12.35;3.72;;;;;;;-145.81;100.00;67990.72;2060400;28;20043;-78
2023/08/25 00:02:19;;;;;;;10.68;3.40;;;;;;;-145.81;100.00;67990.72;2045387;28;20043;-76
2023/08/25 00:03:26;;;;;;;12.05;3.97;;;;;;;-145.81;100.00;67990.72;2045863;28;20028;-77
2023/08/25 00:04:33;;;;;;;15.23;3.83;;;;;;;-145.81;100.00;67990.72;2053808;28;20036;-79
2023/08/25 00:05:37;;;;;;;9.25;3.22;;;;;;;-145.81;100.00;67990.72;2060770;28;20034;-80
2023/08/25 00:06:42;;;;;;;9.93;3.90;;;;;;;-145.81;100.00;67990.72;2068102;28;20066;-81
2023/08/25 00:07:45;;;;;;;9.70;4.05;;;;;;;-145.81;100.00;67990.72;2060343;28;20042;-79
2023/08/25 00:08:46;;;;;;;12.45;3.70;;;;;;;-145.81;100.00;67990.72;2066905;28;20031;-80
2023/08/25 00:09:49;;;;;;;12.80;3.85;;;;;;;-145.81;100.00;67990.72;2060095;28;20835;-79
2023/08/25 00:10:55;;;;;;;9.23;3.85;;;;;;;-145.81;100.00;67990.72;2053147;28;20107;-80
2023/08/25 00:12:00;;;;;;;13.05;3.80;;;;;;;-145.81;100.00;67990.72;2060568;28;20050;-79
2023/08/25 00:13:06;;;;;;;15.00;4.43;;;;;;;-145.81;100.00;67990.72;2052724;28;20142;-78
2023/08/25 00:14:11;;;;;;;7.15;3.40;;;;;;;-145.81;100.00;67990.72;2060609;28;20043;-77
2023/08/25 00:15:17;;;;;;;6.20;3.75;;;;;;;-145.81;100.00;67990.72;2044775;28;20055;-78
2023/08/25 00:16:22;;;;;;;7.18;3.55;;;;;;;-145.81;100.00;67990.72;2053154;28;20031;-80
2023/08/25 00:17:24;;;;;;;7.75;3.58;;;;;;;-145.81;100.00;67990.72;2060785;28;20027;-77
2023/08/25 00:18:27;;;;;;;9.55;4.28;;;;;;;-145.81;100.00;67990.72;2061115;28;20031;-77
2023/08/25 00:19:29;;;;;;;8.15;3.97;;;;;;;-145.81;100.00;67990.72;2052070;28;20043;-78
2023/08/25 00:20:51;;;;;;;7.60;3.90;;;;;;;-145.81;100.00;67990.72;2053099;28;20818;-79
2023/08/25 00:21:58;;;;;;;13.00;4.22;;;;;;;-145.81;100.00;67990.72;2051169;28;20890;-79
2023/08/25 00:23:03;;;;;;;6.93;3.65;;;;;;;-145.81;100.00;67990.72;2053836;28;20146;-78
2023/08/25 00:24:06;;;;;;;7.88;3.83;;;;;;;-145.81;100.00;67990.72;2060170;28;20975;-78
2023/08/25 00:25:08;;;;;;;9.30;3.70;;;;;;;-145.81;100.00;67990.72;2060564;28;20023;-76
2023/08/25 00:26:10;;;;;;;7.75;3.80;;;;;;;-145.81;100.00;67990.72;2052033;28;20155;-77
2023/08/25 00:27:14;;;;;;;8.77;4.32;;;;;;;-145.81;100.00;67990.72;2060632;28;20031;-80
2023/08/25 00:28:24;;;;;;;8.50;4.05;;;;;;;-145.81;100.00;67990.72;2067709;28;20047;-79
2023/08/25 00:29:29;;;;;;;9.30;4.15;;;;;;;-145.81;100.00;67990.72;2068209;28;20069;-79
2023/08/25 00:30:32;;;;;;;7.22;3.92;;;;;;;-145.81;100.00;67990.72;2060194;28;20953;-79
2023/08/25 00:31:37;;;;;;;5.18;3.75;;;;;;;-145.81;100.00;67990.72;2052847;28;20065;-76
2023/08/25 00:32:43;;;;;;;10.70;4.65;;;;;;;-145.81;100.00;67990.72;2052470;28;20028;-77
2023/08/25 00:33:50;;;;;;;6.47;3.67;;;;;;;-145.81;100.00;67990.72;2061116;28;20027;-76
2023/08/25 00:34:52;;;;;;;8.45;3.75;;;;;;;-145.81;100.00;67990.72;2058805;28;20090;-77
2023/08/25 00:35:55;;;;;;;8.30;3.53;;;;;;;-145.81;100.00;67990.72;2044584;28;20039;-76
2023/08/25 00:36:59;;;;;;;14.38;3.83;;;;;;;-145.81;100.00;67990.72;2052427;28;20867;-77
2023/08/25 00:38:02;;;;;;;9.27;3.60;;;;;;;-145.81;100.00;67990.72;2052530;28;20886;-76
2023/08/25 00:39:05;;;;;;;21.05;4.80;;;;;;;-145.81;100.00;67990.72;2052077;28;20023;-76
2023/08/25 00:40:09;;;;;;;16.88;4.20;;;;;;;-145.81;100.00;67990.72;2036427;29;20052;-77
2023/08/25 00:41:13;;;;;;;9.30;4.15;;;;;;;-145.81;100.00;67990.72;2037614;28;20096;-75
2023/08/25 00:42:15;;;;;;;14.88;4.47;;;;;;;-145.81;100.00;67990.72;2044123;28;20127;-77
2023/08/25 00:43:19;;;;;;;10.88;4.18;;;;;;;-145.81;100.00;67990.72;2044815;28;20088;-76
2023/08/25 00:44:21;;;;;;;31.40;5.22;;;;;;;-145.81;100.00;67990.72;2044083;28;20027;-76
2023/08/25 00:45:24;;;;;;;24.42;4.80;;;;;;;-145.81;100.00;67990.72;2044499;28;20146;-76
2023/08/25 00:46:26;;;;;;;14.63;4.78;;;;;;;-145.81;100.00;67990.72;2044169;28;20784;-77
2023/08/25 00:47:30;;;;;;;11.27;4.00;;;;;;;-145.81;100.00;67990.72;2044413;28;20020;-76
2023/08/25 00:48:37;;;;;;;18.15;5.05;;;;;;;-145.81;100.00;67990.72;2044752;28;20777;-76
2023/08/25 00:49:41;;;;;;;31.35;5.45;;;;;;;-145.81;100.00;67990.72;2029826;29;20080;-76
2023/08/25 00:50:49;;;;;;;;;;;;;;;-145.81;100.00;67990.72;2047105;28;20900;-76
2023/08/25 00:51:52;;;;;;;19.17;4.82;;;;;;;-145.81;100.00;67990.72;2052011;28;19982;-76
2023/08/25 00:52:56;;;;;;;20.20;4.47;;;;;;;-145.81;100.00;67990.72;2044748;28;20219;-76
2023/08/25 00:54:04;;;;;;;24.52;4.78;;;;;;;-145.81;100.00;67990.72;2060168;28;20087;-76
2023/08/25 00:55:07;;;;;;;19.85;5.45;;;;;;;-145.81;100.00;67990.72;2044489;28;20044;-78
2023/08/25 00:56:13;;;;;;;13.20;4.85;;;;;;;-145.81;100.00;67990.72;2053715;28;20030;-76
2023/08/25 00:57:16;;;;;;;18.50;4.18;;;;;;;-145.81;100.00;67990.72;2051832;28;20031;-76
2023/08/25 00:58:18;;;;;;;23.80;4.57;;;;;;;-145.81;100.00;67990.72;2052733;28;20098;-76
2023/08/25 00:59:27;;;;;;;19.88;4.55;;;;;;;-145.81;100.00;67990.72;2067934;28;20035;-76
2023/08/25 01:00:31;;;;;;;25.30;4.40;;;;;;;-145.81;100.00;67990.72;2067717;28;20093;-78
2023/08/25 01:01:36;;;;;;;17.73;4.55;;;;;;;-145.81;100.00;67990.72;2052109;28;20032;-79
2023/08/25 01:02:39;;;;;;;15.07;5.00;;;;;;;-145.81;100.00;67990.72;2037229;28;20032;-78
2023/08/25 01:03:44;;;;;;;25.95;6.82;;;;;;;-145.81;100.00;67990.72;2044294;28;20143;-76
2023/08/25 01:04:46;;;;;;;29.10;5.50;;;;;;;-145.81;100.00;67990.72;2060633;28;20148;-76
2023/08/25 01:05:52;;;;;;;19.83;4.68;;;;;;;-145.81;100.00;67990.72;2059902;28;20075;-76
2023/08/25 01:06:57;;;;;;;24.13;4.75;;;;;;;-145.81;100.00;67990.72;2052389;28;20044;-76
2023/08/25 01:07:59;;;;;;;23.95;5.18;;;;;;;-145.81;100.00;67990.72;2058779;28;20071;-76
2023/08/25 01:09:06;;;;;;;22.67;5.22;;;;;;;-145.81;100.00;67990.72;2043964;29;20048;-76
2023/08/25 01:10:13;;;;;;;30.25;5.93;;;;;;;-145.81;100.00;67990.72;2036618;28;20187;-76
2023/08/25 01:11:46;;;;;;;23.27;6.00;;;;;;;-145.81;100.00;67990.72;2036848;29;20067;-77
2023/08/25 01:12:58;;;;;;;26.95;6.00;;;;;;;-145.81;100.00;67990.72;2044804;28;20035;-77
2023/08/25 01:14:11;;;;;;;19.40;4.75;;;;;;;-145.81;100.00;67990.72;2045166;28;20040;-76
2023/08/25 01:15:25;;;;;;;23.98;5.00;;;;;;;-145.81;100.00;67990.72;2048634;28;20056;-76
2023/08/25 01:16:35;;;;;;;21.10;6.22;;;;;;;-145.81;100.00;67990.72;2045498;28;20028;-77
2023/08/25 01:17:40;;;;;;;;;;;;;;;-145.81;100.00;67990.72;2053474;28;20807;-77
2023/08/25 01:18:45;;;;;;;21.15;4.22;;;;;;;-145.81;100.00;67990.72;2051218;28;19918;-76
2023/08/25 01:20:07;;;;;;;29.73;6.55;;;;;;;-145.81;100.00;67990.72;2045192;28;20032;-78
2023/08/25 01:21:14;;;;;;;31.25;6.03;;;;;;;-145.81;100.00;67990.72;2059899;28;20783;-76
2023/08/25 01:22:22;;;;;;;17.77;5.28;;;;;;;-145.81;100.00;67990.72;2051356;28;20046;-77
2023/08/25 01:23:25;;;;;;;18.60;5.80;;;;;;;-145.81;100.00;67990.72;2048816;28;20063;-77
2023/08/25 01:24:48;;;;;;;31.45;4.90;;;;;;;-145.81;100.00;67990.72;2060049;28;20031;-76
2023/08/25 01:25:53;;;;;;;23.33;5.47;;;;;;;-145.81;100.00;67990.72;2049600;28;20103;-77
2023/08/25 01:26:56;;;;;;;23.88;5.57;;;;;;;-145.81;100.00;67990.72;2052673;28;20040;-78
2023/08/25 01:27:59;;;;;;;26.17;4.80;;;;;;;-145.81;100.00;67990.72;2044242;28;20035;-78
2023/08/25 01:29:03;;;;;;;20.08;5.05;;;;;;;-145.81;100.00;67990.72;2044342;28;20974;-78
2023/08/25 01:30:10;;;;;;;25.27;5.05;;;;;;;-145.81;100.00;67990.72;2052819;28;20086;-77
2023/08/25 01:31:13;;;;;;;21.88;5.10;;;;;;;-145.81;100.00;67990.72;2060007;28;20027;-77
2023/08/25 01:32:19;;;;;;;23.10;4.95;;;;;;;-145.81;100.00;67990.72;2052424;28;20133;-77
2023/08/25 01:33:25;;;;;;;34.08;6.13;;;;;;;-145.81;100.00;67990.72;2052137;28;20031;-77
2023/08/25 01:34:31;;;;;;;18.08;4.60;;;;;;;-145.81;100.00;67990.72;2052675;28;20039;-77
2023/08/25 01:35:47;;;;;;;31.98;5.95;;;;;;;-145.81;100.00;67990.72;2052596;28;20051;-77
2023/08/25 01:37:19;;;;;;;20.88;5.45;;;;;;;-145.81;100.00;67990.72;2059796;28;20043;-77
2023/08/25 01:38:58;;;;;;;26.20;5.15;;;;;;;-145.81;100.00;67990.72;2048606;28;20058;-77
2023/08/25 01:40:15;;;;;;;19.98;5.10;;;;;;;-145.81;100.00;67990.72;2062375;28;20960;-77
2023/08/25 01:41:46;;;;;;;26.00;5.93;;;;;;;-145.81;100.00;67990.72;2068130;28;20791;-78
2023/08/25 01:42:51;;;;;;;37.40;7.75;;;;;;;-145.81;100.00;67990.72;2064194;28;20035;-78
2023/08/25 01:43:53;;;;;;;21.55;5.68;;;;;;;-145.81;100.00;67990.72;2067873;28;20026;-78
2023/08/25 01:44:56;;;;;;;28.17;6.47;;;;;;;-145.81;100.00;67990.72;2067788;28;20027;-78
2023/08/25 01:45:59;;;;;;;37.25;6.05;;;;;;;-145.81;100.00;67990.72;2053142;28;20036;-79
2023/08/25 01:47:07;;;;;;;28.88;5.60;;;;;;;-145.81;100.00;67990.72;2051360;28;20131;-79
2023/08/25 01:48:14;;;;;;;34.15;5.90;;;;;;;-145.81;100.00;67990.72;2046398;28;20135;-79
2023/08/25 01:49:23;;;;;;;27.45;5.68;;;;;;;-145.81;100.00;67990.72;2060651;28;20159;-79
2023/08/25 01:50:26;;;;;;;36.63;6.53;;;;;;;-145.81;100.00;67990.72;2060198;28;20030;-80
2023/08/25 01:51:29;;;;;;;21.40;5.10;;;;;;;-145.81;100.00;67990.72;2059573;28;20074;-79
2023/08/25 01:52:38;;;;;;;26.70;5.20;;;;;;;-145.81;100.00;67990.72;2060761;28;20953;-79
2023/08/25 01:53:43;;;;;;;25.88;6.05;;;;;;;-145.81;100.00;67990.72;2059565;28;20027;-78
2023/08/25 01:54:48;;;;;;;20.67;5.30;;;;;;;-145.81;100.00;67990.72;2060223;28;20046;-81
2023/08/25 01:55:50;;;;;;;19.88;4.97;;;;;;;-145.81;100.00;67990.72;2051629;28;20815;-78
2023/08/25 01:56:55;;;;;;;23.55;4.65;;;;;;;-145.81;100.00;67990.72;2060205;28;20079;-78
2023/08/25 01:57:58;;;;;;;20.25;6.60;;;;;;;-145.81;100.00;67990.72;2059435;28;20035;-78
2023/08/25 01:59:00;;;;;;;25.83;5.50;;;;;;;-145.81;100.00;67990.72;2051864;28;20032;-78
2023/08/25 02:00:07;;;;;;;14.32;5.20;;;;;;;-145.81;100.00;67990.72;2051971;28;20050;-80
2023/08/25 02:01:16;;;;;;;15.23;4.53;;;;;;;-145.81;100.00;67990.72;2053239;28;20038;-81
2023/08/25 02:02:21;;;;;;;9.15;4.20;;;;;;;-145.81;100.00;67990.72;2051997;28;20154;-81
2023/08/25 02:03:24;;;;;;;12.25;4.85;;;;;;;-145.81;100.00;67990.72;2059465;28;20036;-81
2023/08/25 02:04:29;;;;;;;12.80;4.35;;;;;;;-145.81;100.00;67990.72;2059647;28;20153;-82
2023/08/25 02:05:35;;;;;;;11.68;4.88;;;;;;;-145.81;100.00;67990.72;2051435;28;20035;-79
2023/08/25 02:06:42;;;;;;;8.00;4.15;;;;;;;-145.81;100.00;67990.72;2053743;28;20195;-80
2023/08/25 02:07:44;;;;;;;12.20;5.07;;;;;;;-145.81;100.00;67990.72;2059678;28;20048;-79
2023/08/25 02:08:51;;;;;;;12.40;4.68;;;;;;;-145.81;100.00;67990.72;2037562;28;20036;-79
2023/08/25 02:09:58;;;;;;;10.82;5.00;;;;;;;-145.81;100.00;67990.72;2045823;28;20084;-79
2023/08/25 02:11:00;;;;;;;13.90;4.22;;;;;;;-145.81;100.00;67990.72;2053190;28;20039;-79
2023/08/25 02:12:02;;;;;;;15.40;4.70;;;;;;;-145.81;100.00;67990.72;2053461;28;20071;-80
2023/08/25 02:13:08;;;;;;;11.30;4.22;;;;;;;-145.81;100.00;67990.72;2053136;28;20030;-79
2023/08/25 02:14:10;;;;;;;4.95;3.80;;;;;;;-145.81;100.00;67990.72;2053116;28;20933;-79
2023/08/25 02:15:14;;;;;;;8.82;4.30;;;;;;;-145.81;100.00;67990.72;2045001;29;20036;-80
2023/08/25 02:16:18;;;;;;;9.60;4.60;;;;;;;-145.81;100.00;67990.72;2045315;28;20032;-77
2023/08/25 02:17:19;;;;;;;14.45;4.43;;;;;;;-145.81;100.00;67990.72;2044959;28;20836;-77
2023/08/25 02:18:24;;;;;;;8.77;3.85;;;;;;;-145.81;100.00;67990.72;2037415;29;20099;-77
2023/08/25 02:19:29;;;;;;;7.95;4.00;;;;;;;-145.81;100.00;67990.72;2045899;28;20032;-77
2023/08/25 02:20:38;;;;;;;10.27;4.10;;;;;;;-145.81;100.00;67990.72;2037165;29;20100;-77
2023/08/25 02:21:43;;;;;;;9.05;3.90;;;;;;;-145.81;100.00;67990.72;2039679;28;20044;-77
2023/08/25 02:22:48;;;;;;;7.57;3.72;;;;;;;-145.81;100.00;67990.72;2045102;29;20113;-77
2023/08/25 02:23:55;;;;;;;10.95;3.97;;;;;;;-145.81;100.00;67990.72;2037565;29;20143;-77
2023/08/25 02:24:57;;;;;;;9.13;3.92;;;;;;;-145.81;100.00;67990.72;2030732;28;20033;-78
2023/08/25 02:25:59;;;;;;;9.55;4.13;;;;;;;-145.81;100.00;67990.72;2037445;28;20045;-79
2023/08/25 02:27:02;;;;;;;7.70;4.22;;;;;;;-145.81;100.00;67990.72;2045346;28;20092;-80
2023/08/25 02:28:07;;;;;;;17.13;4.30;;;;;;;-145.81;100.00;67990.72;2061700;28;20035;-79
2023/08/25 02:29:14;;;;;;;9.02;4.00;;;;;;;-145.81;100.00;67990.72;2068516;28;20133;-78
2023/08/25 02:30:19;;;;;;;12.32;4.10;;;;;;;-145.81;100.00;67990.72;2060463;28;20019;-77
2023/08/25 02:31:21;;;;;;;8.48;4.32;;;;;;;-145.81;100.00;67990.72;2054210;28;20184;-78
2023/08/25 02:32:23;;;;;;;10.15;4.57;;;;;;;-145.81;100.00;67990.72;2060903;28;20031;-77
2023/08/25 02:33:27;;;;;;;9.30;4.07;;;;;;;-145.81;100.00;67990.72;2045243;28;20086;-76
2023/08/25 02:34:29;;;;;;;7.32;3.67;;;;;;;-145.81;100.00;67990.72;2045061;28;20875;-76
2023/08/25 02:35:31;;;;;;;8.75;4.20;;;;;;;-145.81;100.00;67990.72;2060948;28;20027;-76
2023/08/25 02:36:34;;;;;;;8.98;3.60;;;;;;;-145.81;100.00;67990.72;2045028;29;20887;-76
2023/08/25 02:37:38;;;;;;;8.32;3.70;;;;;;;-145.81;100.00;67990.72;2037570;28;20088;-76
2023/08/25 02:38:45;;;;;;;11.57;4.05;;;;;;;-145.81;100.00;67990.72;2054916;28;20024;-89
2023/08/25 02:39:47;;;;;;;13.75;4.22;;;;;;;-145.81;100.00;67990.72;2044797;29;20051;-79
2023/08/25 02:40:50;;;;;;;8.73;4.20;;;;;;;-145.81;100.00;67990.72;2037891;28;20048;-80
2023/08/25 02:42:00;;;;;;;9.48;4.55;;;;;;;-145.81;100.00;67990.72;2045869;28;20231;-80
2023/08/25 02:43:07;;;;;;;9.57;4.55;;;;;;;-145.81;100.00;67990.72;2054193;28;20181;-77
2023/08/25 02:44:09;;;;;;;7.82;3.95;;;;;;;-145.81;100.00;67990.72;2060926;28;20050;-76
2023/08/25 02:45:11;;;;;;;7.28;4.05;;;;;;;-145.81;100.00;67990.72;2044883;29;20143;-76
2023/08/25 02:46:13;;;;;;;11.45;4.18;;;;;;;-145.81;100.00;67990.72;2037210;29;20036;-76
2023/08/25 02:47:17;;;;;;;9.30;3.92;;;;;;;-145.81;100.00;67990.72;2045231;28;20061;-76
2023/08/25 02:48:21;;;;;;;8.68;4.22;;;;;;;-145.81;100.00;67990.72;2052720;28;20024;-76
2023/08/25 02:49:23;;;;;;;10.13;4.00;;;;;;;-145.81;100.00;67990.72;2037298;29;20987;-76
2023/08/25 02:50:25;;;;;;;6.65;3.50;;;;;;;-145.81;100.00;67990.72;2045068;28;20874;-78
2023/08/25 02:51:27;;;;;;;8.38;3.60;;;;;;;-145.81;100.00;67990.72;2045175;28;20111;-78
2023/08/25 02:52:34;;;;;;;5.78;3.40;;;;;;;-145.81;100.00;67990.72;2044820;29;20215;-77
2023/08/25 02:53:36;;;;;;;6.82;4.05;;;;;;;-145.81;100.00;67990.72;2037667;29;20048;-77
2023/08/25 02:54:47;;;;;;;10.38;4.25;;;;;;;-145.81;100.00;67990.72;2038928;28;20028;-78
2023/08/25 02:55:51;;;;;;;9.27;4.15;;;;;;;-145.81;100.00;67990.72;2046167;28;20024;-77
2023/08/25 02:56:53;;;;;;;9.35;4.07;;;;;;;-145.81;100.00;67990.72;2037343;29;20041;-76
2023/08/25 02:58:03;;;;;;;8.52;4.10;;;;;;;-145.81;100.00;67990.72;2037935;28;20024;-77
2023/08/25 02:59:07;;;;;;;7.00;3.60;;;;;;;-145.81;100.00;67990.72;2038178;29;20032;-77
2023/08/25 03:00:10;;;;;;;6.72;3.50;;;;;;;-145.81;100.00;67990.72;2045404;28;20032;-77
2023/08/25 03:01:12;;;;;;;12.10;3.72;;;;;;;-145.81;100.00;67990.72;2053066;28;20123;-77
2023/08/25 03:02:18;;;;;;;9.32;3.53;;;;;;;-145.81;100.00;67990.72;2037388;29;20063;-77
2023/08/25 03:03:26;;;;;;;15.00;4.88;;;;;;;-145.81;100.00;67990.72;2038976;28;20101;-77
2023/08/25 03:04:31;;;;;;;9.18;3.63;;;;;;;-145.81;100.00;67990.72;2037441;29;20068;-77
2023/08/25 03:05:33;;;;;;;13.80;4.05;;;;;;;-145.81;100.00;67990.72;2037255;28;20033;-77
2023/08/25 03:06:37;;;;;;;13.85;3.60;;;;;;;-145.81;100.00;67990.72;2052682;28;20055;-76
2023/08/25 03:07:38;;;;;;;13.48;4.22;;;;;;;-145.81;100.00;67990.72;2052895;28;20047;-77
2023/08/25 03:08:45;;;;;;;14.60;3.95;;;;;;;-145.81;100.00;67990.72;2035085;29;20159;-76
2023/08/25 03:09:52;;;;;;;10.57;3.83;;;;;;;-145.81;100.00;67990.72;2037682;29;20032;-76
2023/08/25 03:10:55;;;;;;;9.23;3.63;;;;;;;-145.81;100.00;67990.72;2036739;29;21412;-77
2023/08/25 03:11:59;;;;;;;9.07;4.32;;;;;;;-145.81;100.00;67990.72;2037361;29;20043;-76
2023/08/25 03:13:09;;;;;;;14.15;3.75;;;;;;;-145.81;100.00;67990.72;2036950;29;20020;-76
2023/08/25 03:14:10;;;;;;;10.52;3.72;;;;;;;-145.81;100.00;67990.72;2038381;29;20021;-76
2023/08/25 03:15:17;;;;;;;8.45;3.75;;;;;;;-145.81;100.00;67990.72;2036160;29;20040;-77
2023/08/25 03:16:21;;;;;;;9.05;3.53;;;;;;;-145.81;100.00;67990.72;2037945;29;20036;-77
2023/08/25 03:17:23;;;;;;;9.95;4.00;;;;;;;-145.81;100.00;67990.72;2036353;29;20843;-77
2023/08/25 03:18:26;;;;;;;9.88;3.50;;;;;;;-145.81;100.00;67990.72;2029780;29;20036;-77
2023/08/25 03:19:28;;;;;;;11.98;3.70;;;;;;;-145.81;100.00;67990.72;2036327;29;20148;-77
2023/08/25 03:20:33;;;;;;;9.77;4.10;;;;;;;-145.81;100.00;67990.72;2029392;29;20037;-77
2023/08/25 03:21:36;;;;;;;8.70;3.55;;;;;;;-145.81;100.00;67990.72;2035771;29;20032;-77
2023/08/25 03:22:41;;;;;;;12.05;3.78;;;;;;;-145.81;100.00;67990.72;2037623;29;20104;-78
2023/08/25 03:23:48;;;;;;;10.20;4.30;;;;;;;-145.81;100.00;67990.72;2044292;28;20031;-77
2023/08/25 03:24:51;;;;;;;11.70;4.00;;;;;;;-145.81;100.00;67990.72;2045416;28;20851;-77
2023/08/25 03:25:54;;;;;;;16.77;4.28;;;;;;;-145.81;100.00;67990.72;2044650;28;20055;-76
2023/08/25 03:27:02;;;;;;;11.82;4.03;;;;;;;-145.81;100.00;67990.72;2044749;28;20056;-77
2023/08/25 03:28:08;;;;;;;13.43;4.10;;;;;;;-145.81;100.00;67990.72;2052509;28;20875;-79
2023/08/25 03:29:12;;;;;;;11.80;4.03;;;;;;;-145.81;100.00;67990.72;2052644;28;20110;-79
2023/08/25 03:30:18;;;;;;;10.20;3.50;;;;;;;-145.81;100.00;67990.72;2044436;28;21276;-79
2023/08/25 03:31:20;;;;;;;12.48;3.42;;;;;;;-145.81;100.00;67990.72;2053497;28;20034;-79
2023/08/25 03:32:22;;;;;;;10.18;3.72;;;;;;;-145.81;100.00;67990.72;2044529;29;20032;-79
2023/08/25 03:33:27;;;;;;;10.55;3.60;;;;;;;-145.81;100.00;67990.72;2038071;28;20045;-80
2023/08/25 03:34:29;;;;;;;12.65;4.18;;;;;;;-145.81;100.00;67990.72;2055628;28;20115;-80
2023/08/25 03:35:37;;;;;;;16.15;3.97;;;;;;;-145.81;100.00;67990.72;2060931;28;20099;-79
2023/08/25 03:36:42;;;;;;;11.15;4.45;;;;;;;-145.81;100.00;67990.72;2060438;28;20046;-79
2023/08/25 03:37:46;;;;;;;12.80;4.20;;;;;;;-145.81;100.00;67990.72;2060605;28;20137;-76
2023/08/25 03:38:50;;;;;;;12.85;4.70;;;;;;;-145.81;100.00;67990.72;2060660;28;20185;-76
2023/08/25 03:39:58;;;;;;;11.18;4.15;;;;;;;-145.81;100.00;67990.72;2044220;29;20146;-77
2023/08/25 03:41:04;;;;;;;13.68;4.18;;;;;;;-145.81;100.00;67990.72;2047887;28;20025;-77
2023/08/25 03:42:07;;;;;;;10.35;3.83;;;;;;;-145.81;100.00;67990.72;2060810;28;20043;-78
2023/08/25 03:43:11;;;;;;;9.05;3.60;;;;;;;-145.81;100.00;67990.72;2060828;28;20031;-75
2023/08/25 03:44:15;;;;;;;11.10;4.00;;;;;;;-145.81;100.00;67990.72;2044509;28;20040;-74
2023/08/25 03:45:17;;;;;;;10.65;3.80;;;;;;;-145.81;100.00;67990.72;2045589;28;20040;-74
2023/08/25 03:46:22;;;;;;;10.90;3.70;;;;;;;-145.81;100.00;67990.72;2060793;28;20035;-79
2023/08/25 03:47:24;;;;;;;16.67;4.35;;;;;;;-145.81;100.00;67990.72;2060294;28;20035;-76
2023/08/25 03:48:29;;;;;;;14.85;4.45;;;;;;;-145.81;100.00;67990.72;2045198;28;20051;-77
2023/08/25 03:49:32;;;;;;;13.23;4.45;;;;;;;-145.81;100.00;67990.72;2036999;28;20158;-76
2023/08/25 03:50:37;;;;;;;9.40;4.05;;;;;;;-145.81;100.00;67990.72;2053192;28;20075;-76
2023/08/25 03:51:40;;;;;;;10.32;3.90;;;;;;;-145.81;100.00;67990.72;2044977;28;20048;-76
2023/08/25 03:52:49;;;;;;;8.80;3.55;;;;;;;-145.81;100.00;67990.72;2053621;28;20028;-79
2023/08/25 03:53:54;;;;;;;13.30;4.10;;;;;;;-145.81;100.00;67990.72;2044776;29;20085;-78
2023/08/25 03:55:01;;;;;;;10.35;3.92;;;;;;;-145.81;100.00;67990.72;2052982;28;20150;-78
2023/08/25 03:56:04;;;;;;;11.80;4.15;;;;;;;-145.81;100.00;67990.72;2053825;28;20023;-78
2023/08/25 03:57:11;;;;;;;11.07;3.53;;;;;;;-145.81;100.00;67990.72;2052935;28;20036;-77
2023/08/25 03:58:23;;;;;;;18.88;5.22;;;;;;;-145.81;100.00;67990.72;2060678;28;20027;-77
2023/08/25 03:59:30;;;;;;;10.63;4.68;;;;;;;-145.81;100.00;67990.72;2060629;28;20050;-76
2023/08/25 04:00:31;;;;;;;10.65;4.28;;;;;;;-145.81;100.00;67990.72;2061595;28;20066;-76
2023/08/25 04:01:33;;;;;;;13.73;5.68;;;;;;;-145.81;100.00;67990.72;2052566;28;20190;-77
2023/08/25 04:02:39;;;;;;;19.15;6.40;;;;;;;-145.81;100.00;67990.72;2037084;28;20076;-77
2023/08/25 04:03:47;;;;;;;13.55;5.78;;;;;;;-145.81;100.00;67990.72;2038675;28;20121;-78
2023/08/25 04:04:49;;;;;;;19.17;5.63;;;;;;;-145.81;100.00;67990.72;2045688;28;20044;-76
2023/08/25 04:05:53;;;;;;;14.55;5.93;;;;;;;-145.81;100.00;67990.72;2060431;28;20027;-76
2023/08/25 04:06:55;;;;;;;11.43;5.97;;;;;;;-145.81;100.00;67990.72;2060407;28;20774;-76
2023/08/25 04:08:00;;;;;;;7.30;4.57;;;;;;;-145.81;100.00;67990.72;2059586;28;20043;-76
2023/08/25 04:09:06;;;;;;;11.35;4.95;;;;;;;-145.81;100.00;67990.72;2051978;28;20020;-76
2023/08/25 04:10:09;;;;;;;9.32;4.10;;;;;;;-145.81;100.00;67990.72;2044419;29;20036;-76
2023/08/25 04:11:11;;;;;;;10.98;4.60;;;;;;;-145.81;100.00;67990.72;2044431;29;20024;-76
2023/08/25 04:12:15;;;;;;;14.00;4.68;;;;;;;-145.81;100.00;67990.72;2036638;29;20074;-76
2023/08/25 04:13:20;;;;;;;12.05;4.28;;;;;;;-145.81;100.00;67990.72;2044913;28;20130;-76
2023/08/25 04:14:23;;;;;;;8.60;3.85;;;;;;;-145.81;100.00;67990.72;2052169;28;20794;-76
2023/08/25 04:15:28;;;;;;;7.78;3.78;;;;;;;-145.81;100.00;67990.72;2051273;28;20106;-76
2023/08/25 04:16:30;;;;;;;10.05;4.40;;;;;;;-145.81;100.00;67990.72;2044437;28;20039;-76
2023/08/25 04:17:34;;;;;;;8.27;4.28;;;;;;;-145.81;100.00;67990.72;2035929;29;20866;-76
2023/08/25 04:18:39;;;;;;;8.43;3.90;;;;;;;-145.81;100.00;67990.72;2038133;28;20127;-77
2023/08/25 04:19:41;;;;;;;8.20;3.70;;;;;;;-145.81;100.00;67990.72;2043839;29;20044;-77
2023/08/25 04:20:43;;;;;;;6.88;3.30;;;;;;;-145.81;100.00;67990.72;2043922;29;20048;-77
2023/08/25 04:21:46;;;;;;;11.43;3.67;;;;;;;-145.81;100.00;67990.72;2043733;29;20100;-76
2023/08/25 04:22:50;;;;;;;8.75;3.50;;;;;;;-145.81;100.00;67990.72;2044609;28;20751;-76
2023/08/25 04:23:52;;;;;;;5.45;3.40;;;;;;;-145.81;100.00;67990.72;2051444;28;20159;-76
2023/08/25 04:24:57;;;;;;;5.90;3.80;;;;;;;-145.81;100.00;67990.72;2045311;28;20030;-76
2023/08/25 04:26:00;;;;;;;8.57;4.35;;;;;;;-145.81;100.00;67990.72;2044728;28;20036;-76
2023/08/25 04:27:06;;;;;;;10.27;3.60;;;;;;;-145.81;100.00;67990.72;2053245;28;20032;-76
2023/08/25 04:28:07;;;;;;;8.35;3.60;;;;;;;-145.81;100.00;67990.72;2059696;28;20039;-75
2023/08/25 04:29:09;;;;;;;10.23;4.88;;;;;;;-145.81;100.00;67990.72;2052304;28;20032;-75
2023/08/25 04:30:13;;;;;;;13.30;3.95;;;;;;;-145.81;100.00;67990.72;2036432;29;20171;-75
2023/08/25 04:31:18;;;;;;;12.55;3.70;;;;;;;-145.81;100.00;67990.72;2029862;28;20029;-77
2023/08/25 04:32:26;;;;;;;14.02;3.88;;;;;;;-145.81;100.00;67990.72;2054572;28;20063;-77
2023/08/25 04:33:30;;;;;;;9.52;4.18;;;;;;;-145.81;100.00;67990.72;2060082;28;20028;-77
2023/08/25 04:34:33;;;;;;;9.00;3.63;;;;;;;-145.81;100.00;67990.72;2059183;28;20138;-77
2023/08/25 04:35:38;;;;;;;8.30;3.53;;;;;;;-145.81;100.00;67990.72;2068201;28;20157;-77
2023/08/25 04:36:45;;;;;;;11.18;4.10;;;;;;;-145.81;100.00;67990.72;2068274;28;20086;-78
2023/08/25 04:37:47;;;;;;;14.45;4.60;;;;;;;-145.81;100.00;67990.72;2060103;28;20042;-76
2023/08/25 04:38:50;;;;;;;12.75;3.85;;;;;;;-145.81;100.00;67990.72;2052186;28;20848;-75
2023/08/25 04:39:55;;;;;;;5.85;3.53;;;;;;;-145.81;100.00;67990.72;2060402;28;20826;-75
2023/08/25 04:41:00;;;;;;;8.20;3.55;;;;;;;-145.81;100.00;67990.72;2044339;28;20036;-76
2023/08/25 04:42:04;;;;;;;8.45;3.15;;;;;;;-145.81;100.00;67990.72;2037312;28;20127;-76
2023/08/25 04:43:05;;;;;;;11.10;3.80;;;;;;;-145.81;100.00;67990.72;2036974;28;20032;-78
2023/08/25 04:44:08;;;;;;;8.32;3.50;;;;;;;-145.81;100.00;67990.72;2044520;28;20044;-76
2023/08/25 04:45:14;;;;;;;7.97;3.90;;;;;;;-145.81;100.00;67990.72;2052290;28;20882;-78
2023/08/25 04:46:18;;;;;;;9.02;3.35;;;;;;;-145.81;100.00;67990.72;2052561;28;20032;-77
2023/08/25 04:47:23;;;;;;;8.30;3.83;;;;;;;-145.81;100.00;67990.72;2051775;28;20040;-75
2023/08/25 04:48:26;;;;;;;8.50;3.80;;;;;;;-145.81;100.00;67990.72;2058808;28;20275;-77
2023/08/25 04:49:29;;;;;;;10.77;3.60;;;;;;;-145.81;100.00;67990.72;2066923;28;20229;-77
2023/08/25 04:50:31;;;;;;;5.97;3.40;;;;;;;-145.81;100.00;67990.72;2066665;28;20069;-72
2023/08/25 04:51:34;;;;;;;12.40;3.88;;;;;;;-145.81;100.00;67990.72;2058578;28;20081;-78
2023/08/25 04:52:36;;;;;;;7.38;3.90;;;;;;;-145.81;100.00;67990.72;2043277;28;20044;-77
2023/08/25 04:53:42;;;;;;;7.70;3.78;;;;;;;-145.81;100.00;67990.72;2043072;28;20040;-76